Time;durP1;ratioP1;P1;durP2;ratioP2;P2;SDS_P1;SDS_P2;PMS_P1;PMS_P2;Temp;Humidity;BMP_temperature;BMP_pressure;BME280_temperature;BME280_humidity;BME280_pressure;Samples;Min_cycle;Max_cycle;Signal;HPM_P1;HPM_P2
2024/03/17 00:01:54;;;;;;;9.53;9.33;;;;;;;;;;4973889;28;20591;-71
2024/03/17 00:04:21;;;;;;;8.77;8.67;;;;;;;;;;4962722;28;20511;-73
2024/03/17 00:06:49;;;;;;;9.10;8.90;;;;;;;;;;4963003;28;20610;-73
2024/03/17 00:09:17;;;;;;;8.50;8.40;;;;;;;;;;4960354;28;20479;-73
2024/03/17 00:11:45;;;;;;;8.37;8.27;;;;;;;;;;4968510;28;20464;-71
2024/03/17 00:14:13;;;;;;;8.53;8.43;;;;;;;;;;4962755;28;20471;-72
2024/03/17 00:16:39;;;;;;;8.50;8.40;;;;;;;;;;4961481;28;20506;-72
2024/03/17 00:19:06;;;;;;;8.30;8.20;;;;;;;;;;4966155;28;20475;-72
2024/03/17 00:21:33;;;;;;;9.00;8.80;;;;;;;;;;4963111;28;20472;-72
2024/03/17 00:24:02;;;;;;;7.97;7.87;;;;;;;;;;4960363;28;20465;-71
2024/03/17 00:26:30;;;;;;;8.87;8.70;;;;;;;;;;4967108;28;20993;-71
2024/03/17 00:28:56;;;;;;;9.07;8.87;;;;;;;;;;4963525;28;20944;-70
2024/03/17 00:31:24;;;;;;;8.70;8.60;;;;;;;;;;4969850;28;20558;-70
2024/03/17 00:33:52;;;;;;;9.10;8.90;;;;;;;;;;4968030;28;20832;-70
2024/03/17 00:36:20;;;;;;;8.67;8.53;;;;;;;;;;4975793;28;20611;-72
2024/03/17 00:38:46;;;;;;;9.67;9.47;;;;;;;;;;4971423;28;20980;-71
2024/03/17 00:41:15;;;;;;;9.10;8.90;;;;;;;;;;4974481;28;20502;-70
2024/03/17 00:43:42;;;;;;;9.40;9.20;;;;;;;;;;4973609;28;20934;-71
2024/03/17 00:46:09;;;;;;;9.20;9.00;;;;;;;;;;4971959;28;20578;-71
2024/03/17 00:48:35;;;;;;;8.90;8.70;;;;;;;;;;4969270;28;20946;-68
2024/03/17 00:51:03;;;;;;;9.27;9.07;;;;;;;;;;4972395;28;20494;-69
2024/03/17 00:53:30;;;;;;;9.00;8.80;;;;;;;;;;4973533;28;20455;-71
2024/03/17 00:55:58;;;;;;;8.70;8.60;;;;;;;;;;4960092;28;20542;-70
2024/03/17 00:58:25;;;;;;;8.93;8.73;;;;;;;;;;4937537;28;20499;-71
2024/03/17 01:00:52;;;;;;;8.47;8.37;;;;;;;;;;4935651;28;22923;-68
2024/03/17 01:03:19;;;;;;;8.50;8.40;;;;;;;;;;4935940;28;20805;-71
2024/03/17 01:05:47;;;;;;;8.13;8.03;;;;;;;;;;4935084;28;20909;-73
2024/03/17 01:08:14;;;;;;;8.50;8.40;;;;;;;;;;4937281;28;20467;-71
2024/03/17 01:10:41;;;;;;;8.10;8.00;;;;;;;;;;4938351;28;20478;-73
2024/03/17 01:13:08;;;;;;;8.07;7.97;;;;;;;;;;4936848;28;20484;-72
2024/03/17 01:15:37;;;;;;;8.00;7.90;;;;;;;;;;4935082;28;20474;-71
2024/03/17 01:18:04;;;;;;;7.90;7.80;;;;;;;;;;4939003;28;21139;-74
2024/03/17 01:20:31;;;;;;;8.60;8.50;;;;;;;;;;4938307;28;20565;-72
2024/03/17 01:22:58;;;;;;;9.30;9.10;;;;;;;;;;4937608;28;20468;-71
2024/03/17 01:25:25;;;;;;;8.30;8.20;;;;;;;;;;4937072;28;21295;-71
2024/03/17 01:27:51;;;;;;;8.20;8.10;;;;;;;;;;4936399;28;20600;-73
2024/03/17 01:30:19;;;;;;;8.40;8.30;;;;;;;;;;4936007;28;20472;-72
2024/03/17 01:32:48;;;;;;;8.33;8.23;;;;;;;;;;4936856;28;20502;-71
2024/03/17 01:35:15;;;;;;;8.60;8.50;;;;;;;;;;4937130;28;21167;-71
2024/03/17 01:37:42;;;;;;;8.90;8.80;;;;;;;;;;4935996;28;20551;-71
2024/03/17 01:40:10;;;;;;;8.60;8.50;;;;;;;;;;4936405;28;20475;-71
2024/03/17 01:42:37;;;;;;;8.30;8.20;;;;;;;;;;4933653;28;20486;-70
2024/03/17 01:45:19;;;;;;;7.95;7.85;;;;;;;;;;4933947;28;20465;-70
2024/03/17 01:47:47;;;;;;;8.20;8.10;;;;;;;;;;4935460;28;20670;-71
2024/03/17 01:50:16;;;;;;;8.70;8.60;;;;;;;;;;4932366;28;20558;-72
2024/03/17 01:52:44;;;;;;;8.30;8.20;;;;;;;;;;4934636;28;20507;-70
2024/03/17 01:55:10;;;;;;;8.30;8.20;;;;;;;;;;4934197;28;20460;-71
2024/03/17 01:57:38;;;;;;;7.83;7.73;;;;;;;;;;4959242;28;20563;-70
2024/03/17 02:00:08;;;;;;;8.43;8.33;;;;;;;;;;4965857;28;20482;-71
2024/03/17 02:02:35;;;;;;;7.90;7.80;;;;;;;;;;4972921;28;20528;-70
2024/03/17 02:05:03;;;;;;;8.60;8.50;;;;;;;;;;4967442;28;20553;-71
2024/03/17 02:07:30;;;;;;;8.80;8.70;;;;;;;;;;4969819;28;20716;-71
2024/03/17 02:09:57;;;;;;;8.80;8.70;;;;;;;;;;4971390;28;20553;-71
2024/03/17 02:12:24;;;;;;;9.20;9.00;;;;;;;;;;4965583;28;20938;-69
2024/03/17 02:14:51;;;;;;;9.30;9.10;;;;;;;;;;4971369;28;20466;-70
2024/03/17 02:17:18;;;;;;;8.77;8.67;;;;;;;;;;4967041;28;20478;-70
2024/03/17 02:19:45;;;;;;;9.33;9.13;;;;;;;;;;4966436;28;20464;-70
2024/03/17 02:22:15;;;;;;;9.10;8.90;;;;;;;;;;4977102;28;20836;-70
2024/03/17 02:24:41;;;;;;;8.67;8.57;;;;;;;;;;4967589;28;20455;-71
2024/03/17 02:27:08;;;;;;;8.27;8.17;;;;;;;;;;4965195;28;20496;-71
2024/03/17 02:29:36;;;;;;;8.00;7.90;;;;;;;;;;4971316;28;20515;-71
2024/03/17 02:32:06;;;;;;;8.57;8.47;;;;;;;;;;4976716;28;20507;-71
2024/03/17 02:34:33;;;;;;;8.23;8.13;;;;;;;;;;4967804;28;20469;-71
2024/03/17 02:37:00;;;;;;;8.10;8.00;;;;;;;;;;4962979;28;20544;-70
2024/03/17 02:39:33;;;;;;;7.80;7.70;;;;;;;;;;4963944;28;20499;-71
2024/03/17 02:42:02;;;;;;;8.00;7.90;;;;;;;;;;4965891;28;20467;-71
2024/03/17 02:44:30;;;;;;;7.50;7.40;;;;;;;;;;4962588;28;20467;-71
2024/03/17 02:46:57;;;;;;;7.30;7.20;;;;;;;;;;4968566;28;20483;-71
2024/03/17 02:49:24;;;;;;;7.20;7.10;;;;;;;;;;4970659;28;20472;-71
2024/03/17 02:51:51;;;;;;;7.30;7.20;;;;;;;;;;4975773;28;20495;-70
2024/03/17 02:54:19;;;;;;;7.03;6.93;;;;;;;;;;4961743;28;20586;-71
2024/03/17 02:56:47;;;;;;;7.00;6.90;;;;;;;;;;4970510;28;20467;-71
2024/03/17 02:59:14;;;;;;;7.10;7.00;;;;;;;;;;4970460;28;20456;-70
2024/03/17 03:01:43;;;;;;;6.80;6.70;;;;;;;;;;4962517;28;20498;-71
2024/03/17 03:04:10;;;;;;;7.00;6.90;;;;;;;;;;4962353;28;21347;-71
2024/03/17 03:06:38;;;;;;;7.50;7.40;;;;;;;;;;4965357;28;20905;-71
2024/03/17 03:09:09;;;;;;;6.97;6.87;;;;;;;;;;4963837;28;20467;-71
2024/03/17 03:11:37;;;;;;;7.10;7.00;;;;;;;;;;4969872;28;20460;-72
2024/03/17 03:14:05;;;;;;;6.57;6.47;;;;;;;;;;4959607;28;20493;-71
2024/03/17 03:16:33;;;;;;;6.87;6.77;;;;;;;;;;4976923;28;20465;-71
2024/03/17 03:19:00;;;;;;;7.10;7.00;;;;;;;;;;4957348;28;20559;-69
2024/03/17 03:21:27;;;;;;;7.03;6.93;;;;;;;;;;4976010;28;20818;-69
2024/03/17 03:23:54;;;;;;;7.40;7.30;;;;;;;;;;4974935;28;21001;-70
2024/03/17 03:26:23;;;;;;;7.30;7.20;;;;;;;;;;4967676;28;20489;-69
2024/03/17 03:28:50;;;;;;;7.07;6.97;;;;;;;;;;4960019;28;20480;-70
2024/03/17 03:31:19;;;;;;;7.10;7.00;;;;;;;;;;4969304;28;20471;-69
2024/03/17 03:33:46;;;;;;;7.20;7.10;;;;;;;;;;4970221;28;20467;-69
2024/03/17 03:36:14;;;;;;;7.30;7.20;;;;;;;;;;4967009;28;20478;-69
2024/03/17 03:38:41;;;;;;;7.00;6.90;;;;;;;;;;4966115;28;20947;-70
2024/03/17 03:41:09;;;;;;;7.00;6.90;;;;;;;;;;4964939;28;20760;-69
2024/03/17 03:43:36;;;;;;;7.30;7.20;;;;;;;;;;4969491;28;20544;-69
2024/03/17 03:46:04;;;;;;;7.27;7.17;;;;;;;;;;4963543;28;20609;-70
2024/03/17 03:48:34;;;;;;;6.90;6.80;;;;;;;;;;4963800;28;20472;-70
2024/03/17 03:51:01;;;;;;;7.00;6.90;;;;;;;;;;4964761;28;20836;-70
2024/03/17 03:53:28;;;;;;;7.37;7.27;;;;;;;;;;4959400;28;20572;-69
2024/03/17 03:55:55;;;;;;;7.30;7.20;;;;;;;;;;4968559;28;20836;-70
2024/03/17 03:58:23;;;;;;;8.27;8.17;;;;;;;;;;4969035;28;20502;-69
2024/03/17 04:00:50;;;;;;;8.20;8.10;;;;;;;;;;4967610;28;20483;-70
2024/03/17 04:03:17;;;;;;;7.20;7.10;;;;;;;;;;4967837;28;20460;-70
2024/03/17 04:05:46;;;;;;;7.37;7.27;;;;;;;;;;4960481;28;20480;-70
2024/03/17 04:08:14;;;;;;;7.90;7.80;;;;;;;;;;4965190;28;20815;-70
2024/03/17 04:10:41;;;;;;;7.60;7.50;;;;;;;;;;4968773;28;20984;-70
2024/03/17 04:13:09;;;;;;;8.00;7.90;;;;;;;;;;4976499;28;20507;-69
2024/03/17 04:15:36;;;;;;;7.57;7.47;;;;;;;;;;4974356;28;20499;-70
2024/03/17 04:18:04;;;;;;;7.50;7.40;;;;;;;;;;4962043;28;20488;-70
2024/03/17 04:20:31;;;;;;;7.90;7.80;;;;;;;;;;4964289;28;20534;-69
2024/03/17 04:22:59;;;;;;;8.13;8.03;;;;;;;;;;4978104;28;20721;-69
2024/03/17 04:25:25;;;;;;;8.10;8.00;;;;;;;;;;4962237;28;20484;-69
2024/03/17 04:27:52;;;;;;;8.10;8.00;;;;;;;;;;4969234;28;20505;-70
2024/03/17 04:30:20;;;;;;;8.03;7.93;;;;;;;;;;4961802;28;20924;-70
2024/03/17 04:32:47;;;;;;;8.40;8.30;;;;;;;;;;4958967;28;20552;-70
2024/03/17 04:35:14;;;;;;;8.30;8.20;;;;;;;;;;4966778;28;20468;-72
2024/03/17 04:37:41;;;;;;;7.87;7.77;;;;;;;;;;4963768;28;20469;-69
2024/03/17 04:40:11;;;;;;;8.40;8.30;;;;;;;;;;4960554;28;20468;-69
2024/03/17 04:42:39;;;;;;;9.20;9.00;;;;;;;;;;4963803;28;20936;-69
2024/03/17 04:45:09;;;;;;;8.60;8.50;;;;;;;;;;4963752;28;21019;-69
2024/03/17 04:47:36;;;;;;;8.30;8.20;;;;;;;;;;4970098;28;20607;-69
2024/03/17 04:50:04;;;;;;;8.40;8.30;;;;;;;;;;4961575;28;20474;-69
2024/03/17 04:52:31;;;;;;;8.10;8.00;;;;;;;;;;4977560;28;20869;-69
2024/03/17 04:54:58;;;;;;;8.73;8.63;;;;;;;;;;4958085;28;20482;-69
2024/03/17 04:57:27;;;;;;;8.70;8.60;;;;;;;;;;4964714;28;20986;-69
2024/03/17 04:59:54;;;;;;;8.90;8.70;;;;;;;;;;4970093;28;20498;-69
2024/03/17 05:02:22;;;;;;;8.63;8.53;;;;;;;;;;4960346;28;20488;-68
2024/03/17 05:04:50;;;;;;;8.53;8.43;;;;;;;;;;4953283;28;20844;-69
2024/03/17 05:07:20;;;;;;;8.70;8.60;;;;;;;;;;4957227;28;21082;-69
2024/03/17 05:09:47;;;;;;;9.27;9.07;;;;;;;;;;4956942;28;20471;-69
2024/03/17 05:12:14;;;;;;;9.00;8.80;;;;;;;;;;4961411;28;20470;-69
2024/03/17 05:14:43;;;;;;;8.70;8.60;;;;;;;;;;4970634;28;20455;-69
2024/03/17 05:17:10;;;;;;;9.03;8.83;;;;;;;;;;4963179;28;20465;-69
2024/03/17 05:19:37;;;;;;;9.23;9.03;;;;;;;;;;4962738;28;20480;-69
2024/03/17 05:22:05;;;;;;;9.60;9.40;;;;;;;;;;4960342;28;21009;-69
2024/03/17 05:24:32;;;;;;;9.40;9.20;;;;;;;;;;4962962;28;20475;-69
2024/03/17 05:26:59;;;;;;;10.20;10.00;;;;;;;;;;4966732;28;20592;-69
2024/03/17 05:29:26;;;;;;;9.33;9.13;;;;;;;;;;4966623;28;20465;-68
2024/03/17 05:31:55;;;;;;;9.13;8.93;;;;;;;;;;4975226;28;20463;-69
2024/03/17 05:34:23;;;;;;;9.60;9.40;;;;;;;;;;4978640;28;20485;-69
2024/03/17 05:36:52;;;;;;;10.30;10.10;;;;;;;;;;4957307;28;20562;-69
2024/03/17 05:39:20;;;;;;;9.50;9.30;;;;;;;;;;4961946;28;20487;-68
2024/03/17 05:41:49;;;;;;;9.27;9.07;;;;;;;;;;4958159;28;20472;-69
2024/03/17 05:44:16;;;;;;;9.77;9.57;;;;;;;;;;4969266;28;20491;-69
2024/03/17 05:46:44;;;;;;;10.23;10.03;;;;;;;;;;4970840;28;20502;-69
2024/03/17 05:49:12;;;;;;;10.23;10.03;;;;;;;;;;4966770;28;20472;-69
2024/03/17 05:51:40;;;;;;;9.50;9.30;;;;;;;;;;4960834;28;20471;-69
2024/03/17 05:54:07;;;;;;;9.53;9.33;;;;;;;;;;4963190;28;20820;-69
2024/03/17 05:56:34;;;;;;;9.40;9.20;;;;;;;;;;4957390;28;21045;-70
2024/03/17 05:59:02;;;;;;;9.30;9.10;;;;;;;;;;4963338;28;20555;-69
2024/03/17 06:01:29;;;;;;;8.30;8.20;;;;;;;;;;4966260;28;20790;-69
2024/03/17 06:03:56;;;;;;;8.43;8.33;;;;;;;;;;4969817;28;20493;-69
2024/03/17 06:06:25;;;;;;;8.80;8.70;;;;;;;;;;4969505;28;20471;-69
2024/03/17 06:08:52;;;;;;;8.50;8.40;;;;;;;;;;4957554;28;21017;-69
2024/03/17 06:11:19;;;;;;;8.97;8.77;;;;;;;;;;4962964;28;20464;-69
2024/03/17 06:13:46;;;;;;;8.20;8.10;;;;;;;;;;4970240;28;20456;-69
2024/03/17 06:16:14;;;;;;;8.07;7.97;;;;;;;;;;4973130;28;20496;-69
2024/03/17 06:18:41;;;;;;;9.07;8.87;;;;;;;;;;4970403;28;20861;-68
2024/03/17 06:21:09;;;;;;;8.30;8.20;;;;;;;;;;4963733;28;20456;-69
2024/03/17 06:23:37;;;;;;;8.57;8.47;;;;;;;;;;4965997;28;20466;-69
2024/03/17 06:26:05;;;;;;;8.93;8.73;;;;;;;;;;4959713;28;20473;-68
2024/03/17 06:28:33;;;;;;;8.63;8.53;;;;;;;;;;4965468;28;20840;-70
2024/03/17 06:31:03;;;;;;;8.53;8.43;;;;;;;;;;4968287;28;21050;-70
2024/03/17 06:33:31;;;;;;;8.37;8.27;;;;;;;;;;4966739;28;20465;-70
2024/03/17 06:36:01;;;;;;;8.80;8.70;;;;;;;;;;4961675;28;20477;-70
2024/03/17 06:38:29;;;;;;;8.90;8.70;;;;;;;;;;4972562;28;20547;-70
2024/03/17 06:40:57;;;;;;;8.67;8.57;;;;;;;;;;4970591;28;20970;-70
2024/03/17 06:43:24;;;;;;;8.63;8.53;;;;;;;;;;4958988;28;20470;-69
2024/03/17 06:45:56;;;;;;;8.90;8.70;;;;;;;;;;4972382;28;20459;-70
2024/03/17 06:48:23;;;;;;;9.10;8.90;;;;;;;;;;4958739;28;20500;-70
2024/03/17 06:50:51;;;;;;;9.70;9.50;;;;;;;;;;4963231;28;20475;-70
2024/03/17 06:53:18;;;;;;;9.30;9.10;;;;;;;;;;4962149;28;20546;-70
2024/03/17 06:55:47;;;;;;;9.20;9.00;;;;;;;;;;4964677;28;21013;-70
2024/03/17 06:58:16;;;;;;;9.30;9.10;;;;;;;;;;4963089;28;20763;-70
2024/03/17 07:00:44;;;;;;;9.50;9.30;;;;;;;;;;4966459;28;20483;-70
2024/03/17 07:03:12;;;;;;;9.93;9.73;;;;;;;;;;4968669;28;20464;-70
2024/03/17 07:05:40;;;;;;;10.00;9.80;;;;;;;;;;4969761;28;20909;-71
2024/03/17 07:08:08;;;;;;;10.80;10.50;;;;;;;;;;4977628;28;20594;-72
2024/03/17 07:10:35;;;;;;;10.53;10.33;;;;;;;;;;4955193;28;20496;-70
2024/03/17 07:13:03;;;;;;;10.70;10.43;;;;;;;;;;4961214;28;20472;-70
2024/03/17 07:15:31;;;;;;;10.03;9.83;;;;;;;;;;4960991;28;20733;-73
2024/03/17 07:17:59;;;;;;;10.60;10.33;;;;;;;;;;4957518;28;20749;-70
2024/03/17 07:20:26;;;;;;;11.30;11.00;;;;;;;;;;4957311;28;20725;-69
2024/03/17 07:22:53;;;;;;;11.27;10.97;;;;;;;;;;4963345;28;20494;-71
2024/03/17 07:25:21;;;;;;;11.33;11.03;;;;;;;;;;4960208;28;20844;-72
2024/03/17 07:27:49;;;;;;;11.77;11.47;;;;;;;;;;4953042;28;20526;-69
2024/03/17 07:30:16;;;;;;;11.77;11.47;;;;;;;;;;4967993;28;20500;-72
2024/03/17 07:32:45;;;;;;;11.33;11.03;;;;;;;;;;4970935;28;20468;-70
2024/03/17 07:35:12;;;;;;;10.97;10.67;;;;;;;;;;4961928;28;20470;-70
2024/03/17 07:37:39;;;;;;;11.77;11.47;;;;;;;;;;4960634;28;20465;-70
2024/03/17 07:40:08;;;;;;;12.23;11.93;;;;;;;;;;4960755;28;20472;-69
2024/03/17 07:42:35;;;;;;;12.20;11.90;;;;;;;;;;4953568;28;20468;-70
2024/03/17 07:45:02;;;;;;;11.43;11.13;;;;;;;;;;4959456;28;20568;-72
2024/03/17 07:47:35;;;;;;;12.00;11.70;;;;;;;;;;4971484;28;20488;-70
2024/03/17 07:50:05;;;;;;;11.27;10.97;;;;;;;;;;4964895;28;20474;-70
2024/03/17 07:52:32;;;;;;;11.90;11.60;;;;;;;;;;4970405;28;20868;-70
2024/03/17 07:55:00;;;;;;;11.80;11.50;;;;;;;;;;4969344;28;21058;-70
2024/03/17 07:57:28;;;;;;;12.40;12.10;;;;;;;;;;4962487;28;20512;-70
2024/03/17 07:59:55;;;;;;;13.10;12.70;;;;;;;;;;4964990;28;20463;-70
2024/03/17 08:02:23;;;;;;;11.57;11.27;;;;;;;;;;4961289;28;20488;-71
2024/03/17 08:04:50;;;;;;;12.20;11.90;;;;;;;;;;4962017;28;20460;-72
2024/03/17 08:07:19;;;;;;;12.77;12.37;;;;;;;;;;4966174;28;20494;-72
2024/03/17 08:09:46;;;;;;;12.40;12.10;;;;;;;;;;4956354;28;20465;-71
2024/03/17 08:12:14;;;;;;;12.63;12.30;;;;;;;;;;4957887;28;21155;-70
2024/03/17 08:14:41;;;;;;;12.17;11.87;;;;;;;;;;4956213;28;20876;-70
2024/03/17 08:17:09;;;;;;;12.73;12.33;;;;;;;;;;4976660;28;20480;-72
2024/03/17 08:19:38;;;;;;;12.20;11.90;;;;;;;;;;4958072;28;20465;-70
2024/03/17 08:22:05;;;;;;;13.00;12.60;;;;;;;;;;4961675;28;20862;-70
2024/03/17 08:24:34;;;;;;;12.30;12.00;;;;;;;;;;4963543;28;20469;-70
2024/03/17 08:27:01;;;;;;;13.37;12.97;;;;;;;;;;4963464;28;20478;-70
2024/03/17 08:29:28;;;;;;;12.60;12.20;;;;;;;;;;4968462;28;20501;-70
2024/03/17 08:31:56;;;;;;;13.33;12.93;;;;;;;;;;4968791;28;20815;-71
2024/03/17 08:34:23;;;;;;;12.10;11.80;;;;;;;;;;4958860;28;20462;-70
2024/03/17 08:36:50;;;;;;;12.50;12.17;;;;;;;;;;4957542;28;20466;-71
2024/03/17 08:39:17;;;;;;;12.93;12.53;;;;;;;;;;4962719;28;20559;-71
2024/03/17 08:41:46;;;;;;;13.00;12.60;;;;;;;;;;4961926;28;20471;-70
2024/03/17 08:44:13;;;;;;;13.30;12.90;;;;;;;;;;4961415;28;20469;-70
2024/03/17 08:46:40;;;;;;;12.90;12.50;;;;;;;;;;4965610;28;20477;-70
2024/03/17 08:49:07;;;;;;;12.93;12.53;;;;;;;;;;4962975;28;20502;-71
2024/03/17 08:51:35;;;;;;;12.00;11.70;;;;;;;;;;4966618;28;20480;-69
2024/03/17 08:54:02;;;;;;;12.73;12.33;;;;;;;;;;4970246;28;20562;-71
2024/03/17 08:56:29;;;;;;;12.80;12.40;;;;;;;;;;4957434;28;20462;-70
2024/03/17 08:58:58;;;;;;;13.10;12.70;;;;;;;;;;4965715;28;20861;-71
2024/03/17 09:01:27;;;;;;;12.27;11.97;;;;;;;;;;4958777;28;20503;-71
2024/03/17 09:03:56;;;;;;;12.97;12.57;;;;;;;;;;4972222;28;20462;-70
2024/03/17 09:06:24;;;;;;;12.47;12.17;;;;;;;;;;4964253;28;20522;-69
2024/03/17 09:08:51;;;;;;;12.10;11.80;;;;;;;;;;4961652;28;20494;-70
2024/03/17 09:11:24;;;;;;;12.00;11.70;;;;;;;;;;4967364;28;20455;-70
2024/03/17 09:13:51;;;;;;;12.37;12.07;;;;;;;;;;4966560;28;20482;-70
2024/03/17 09:16:22;;;;;;;11.90;11.60;;;;;;;;;;4971541;28;20561;-69
2024/03/17 09:18:49;;;;;;;12.07;11.77;;;;;;;;;;4962601;28;21122;-69
2024/03/17 09:21:17;;;;;;;11.50;11.20;;;;;;;;;;4968056;28;20476;-70
2024/03/17 09:23:44;;;;;;;12.47;12.17;;;;;;;;;;4963413;28;20632;-70
2024/03/17 09:26:13;;;;;;;12.20;11.90;;;;;;;;;;4968753;28;20460;-71
2024/03/17 09:28:41;;;;;;;12.00;11.70;;;;;;;;;;4967535;28;20508;-70
2024/03/17 09:31:09;;;;;;;11.83;11.53;;;;;;;;;;4964338;28;20464;-72
2024/03/17 09:33:38;;;;;;;11.60;11.30;;;;;;;;;;4961399;28;20475;-71
2024/03/17 09:36:06;;;;;;;11.83;11.53;;;;;;;;;;4970185;28;20476;-70
2024/03/17 09:38:35;;;;;;;11.20;10.90;;;;;;;;;;4981515;28;20609;-70
2024/03/17 09:41:03;;;;;;;11.87;11.57;;;;;;;;;;4969883;28;20478;-69
2024/03/17 09:43:30;;;;;;;11.47;11.17;;;;;;;;;;4956729;28;20501;-71
2024/03/17 09:45:58;;;;;;;11.77;11.47;;;;;;;;;;4963980;28;20459;-71
2024/03/17 09:48:27;;;;;;;11.57;11.27;;;;;;;;;;4965203;28;20633;-70
2024/03/17 09:50:57;;;;;;;12.10;11.80;;;;;;;;;;4964977;28;20467;-71
2024/03/17 09:53:26;;;;;;;11.80;11.50;;;;;;;;;;4979306;28;20902;-70
2024/03/17 09:55:54;;;;;;;11.70;11.40;;;;;;;;;;4962877;28;20551;-71
2024/03/17 09:58:22;;;;;;;11.87;11.57;;;;;;;;;;4963304;28;20472;-71
2024/03/17 10:00:49;;;;;;;12.03;11.73;;;;;;;;;;4962840;28;20788;-71
2024/03/17 10:03:41;;;;;;;12.10;11.80;;;;;;;;;;4969276;28;20814;-71
2024/03/17 10:06:11;;;;;;;12.40;12.10;;;;;;;;;;4968594;28;20546;-71
2024/03/17 10:08:41;;;;;;;12.63;12.30;;;;;;;;;;4960730;28;20498;-69
2024/03/17 10:11:09;;;;;;;12.47;12.17;;;;;;;;;;4967713;28;20548;-70
2024/03/17 10:13:36;;;;;;;12.07;11.77;;;;;;;;;;4966366;28;20461;-70
2024/03/17 10:16:04;;;;;;;12.03;11.73;;;;;;;;;;4968112;28;20475;-69
2024/03/17 10:18:31;;;;;;;13.40;13.00;;;;;;;;;;4963489;28;20477;-71
2024/03/17 10:21:00;;;;;;;12.87;12.47;;;;;;;;;;4969401;28;20838;-70
2024/03/17 10:23:29;;;;;;;12.23;11.93;;;;;;;;;;4969150;28;20519;-70
2024/03/17 10:25:56;;;;;;;12.40;12.10;;;;;;;;;;4967100;28;20536;-70
2024/03/17 10:28:24;;;;;;;12.30;12.00;;;;;;;;;;4967653;28;20514;-70
2024/03/17 10:31:01;;;;;;;12.30;12.00;;;;;;;;;;4965096;28;20486;-71
2024/03/17 10:33:28;;;;;;;12.33;12.03;;;;;;;;;;4969250;28;21193;-70
2024/03/17 10:36:05;;;;;;;12.70;12.37;;;;;;;;;;4965930;28;20468;-71
2024/03/17 10:38:35;;;;;;;13.60;13.20;;;;;;;;;;4961387;28;20458;-71
2024/03/17 10:41:02;;;;;;;12.93;12.53;;;;;;;;;;4963967;28;20883;-69
2024/03/17 10:43:30;;;;;;;13.47;13.07;;;;;;;;;;4967394;28;20480;-70
2024/03/17 10:45:59;;;;;;;12.50;12.20;;;;;;;;;;4967995;28;20479;-72
2024/03/17 10:48:31;;;;;;;12.90;12.50;;;;;;;;;;4969277;28;21272;-71
2024/03/17 10:51:02;;;;;;;13.13;12.73;;;;;;;;;;4961465;28;21404;-71
2024/03/17 10:53:29;;;;;;;12.70;12.30;;;;;;;;;;4969875;28;20473;-71
2024/03/17 10:56:08;;;;;;;13.50;13.10;;;;;;;;;;4969882;28;20458;-68
2024/03/17 10:58:37;;;;;;;13.57;13.17;;;;;;;;;;4961592;28;20543;-69
2024/03/17 11:01:04;;;;;;;13.83;13.43;;;;;;;;;;4967037;28;20900;-70
2024/03/17 11:03:34;;;;;;;13.70;13.30;;;;;;;;;;4965617;28;20468;-69
2024/03/17 11:06:03;;;;;;;13.30;12.90;;;;;;;;;;4966027;28;20975;-70
2024/03/17 11:08:31;;;;;;;13.50;13.10;;;;;;;;;;4969944;28;20590;-69
2024/03/17 11:11:00;;;;;;;13.57;13.17;;;;;;;;;;4966046;28;20801;-71
2024/03/17 11:13:28;;;;;;;12.90;12.50;;;;;;;;;;4967087;28;20482;-69
2024/03/17 11:15:58;;;;;;;12.60;12.30;;;;;;;;;;4968532;28;20462;-70
2024/03/17 11:18:46;;;;;;;13.30;12.90;;;;;;;;;;4962759;28;20563;-68
2024/03/17 11:21:20;;;;;;;13.30;12.90;;;;;;;;;;4970835;28;20460;-69
2024/03/17 11:23:57;;;;;;;13.63;13.23;;;;;;;;;;4969897;28;20503;-68
2024/03/17 11:26:29;;;;;;;13.70;13.30;;;;;;;;;;4962720;28;20463;-68
2024/03/17 11:28:58;;;;;;;13.30;12.90;;;;;;;;;;4959556;28;20992;-69
2024/03/17 11:31:52;;;;;;;13.20;12.80;;;;;;;;;;4963698;28;20572;-70
2024/03/17 11:34:32;;;;;;;13.20;12.80;;;;;;;;;;4960003;28;20472;-69
2024/03/17 11:36:59;;;;;;;13.20;12.80;;;;;;;;;;4966043;28;20465;-69
2024/03/17 11:39:44;;;;;;;13.80;13.40;;;;;;;;;;4968799;28;20499;-71
2024/03/17 11:42:15;;;;;;;13.87;13.47;;;;;;;;;;4966619;28;20973;-69
2024/03/17 11:44:42;;;;;;;13.20;12.80;;;;;;;;;;4959391;28;20482;-69
2024/03/17 11:47:10;;;;;;;13.10;12.70;;;;;;;;;;4967126;28;20593;-70
2024/03/17 11:49:37;;;;;;;13.30;12.90;;;;;;;;;;4958371;28;20506;-71
2024/03/17 11:52:05;;;;;;;13.20;12.80;;;;;;;;;;4958465;28;20492;-70
2024/03/17 11:54:35;;;;;;;13.53;13.13;;;;;;;;;;4970727;28;20455;-70
2024/03/17 11:57:02;;;;;;;13.57;13.17;;;;;;;;;;4959615;28;20474;-70
2024/03/17 11:59:30;;;;;;;13.20;12.80;;;;;;;;;;4968605;28;20572;-71
2024/03/17 12:01:58;;;;;;;13.30;12.90;;;;;;;;;;4960837;28;20509;-70
2024/03/17 12:04:25;;;;;;;13.80;13.40;;;;;;;;;;4962610;28;20461;-70
2024/03/17 12:06:53;;;;;;;14.03;13.63;;;;;;;;;;4968356;28;20803;-70
2024/03/17 12:09:20;;;;;;;13.23;12.83;;;;;;;;;;4967629;28;20592;-69
2024/03/17 12:11:48;;;;;;;13.67;13.27;;;;;;;;;;4960944;28;20557;-71
2024/03/17 12:14:16;;;;;;;13.47;13.07;;;;;;;;;;4965658;28;21027;-69
2024/03/17 12:16:54;;;;;;;13.57;13.17;;;;;;;;;;4968742;28;20489;-70
2024/03/17 12:19:21;;;;;;;14.37;13.87;;;;;;;;;;4967597;28;20488;-69
2024/03/17 12:21:50;;;;;;;14.40;13.90;;;;;;;;;;4963778;28;20479;-70
2024/03/17 12:24:17;;;;;;;14.47;13.97;;;;;;;;;;4966654;28;20477;-70
2024/03/17 12:26:45;;;;;;;14.50;14.00;;;;;;;;;;4968156;28;20852;-69
2024/03/17 12:29:25;;;;;;;14.60;14.10;;;;;;;;;;4958417;28;20599;-71
2024/03/17 12:31:53;;;;;;;14.40;13.90;;;;;;;;;;4967085;28;20469;-70
2024/03/17 12:34:20;;;;;;;14.40;13.90;;;;;;;;;;4959432;28;20839;-71
2024/03/17 12:36:47;;;;;;;14.70;14.20;;;;;;;;;;4960630;28;20577;-71
2024/03/17 12:39:21;;;;;;;14.93;14.43;;;;;;;;;;4967892;28;20456;-71
2024/03/17 12:42:03;;;;;;;14.43;13.93;;;;;;;;;;4963389;28;20470;-70
2024/03/17 12:44:29;;;;;;;14.60;14.10;;;;;;;;;;4955097;28;20477;-70
2024/03/17 12:47:00;;;;;;;13.73;13.33;;;;;;;;;;4967597;28;20462;-70
2024/03/17 12:49:26;;;;;;;13.90;13.50;;;;;;;;;;4966820;28;20870;-69
2024/03/17 12:51:55;;;;;;;13.70;13.30;;;;;;;;;;4962191;28;20522;-70
2024/03/17 12:54:23;;;;;;;13.70;13.30;;;;;;;;;;4956970;28;20486;-70
2024/03/17 13:02:43;;;;;;;14.00;13.50;;;;;;;;;;4944666;28;20476;-70
2024/03/17 13:05:20;;;;;;;13.80;13.40;;;;;;;;;;4962986;28;21136;-70
2024/03/17 13:07:47;;;;;;;13.80;13.40;;;;;;;;;;4956223;28;20467;-69
2024/03/17 13:10:15;;;;;;;14.20;13.70;;;;;;;;;;4967303;28;20572;-70
2024/03/17 13:12:43;;;;;;;14.10;13.60;;;;;;;;;;4968771;28;20462;-72
2024/03/17 13:15:11;;;;;;;13.93;13.53;;;;;;;;;;4962378;28;20472;-70
2024/03/17 13:17:40;;;;;;;14.03;13.60;;;;;;;;;;4959157;28;20472;-70
2024/03/17 13:20:11;;;;;;;13.83;13.43;;;;;;;;;;4959293;28;20923;-70
2024/03/17 13:22:40;;;;;;;13.40;13.00;;;;;;;;;;4958564;28;21013;-71
2024/03/17 13:25:07;;;;;;;13.63;13.23;;;;;;;;;;4964839;28;20478;-70
2024/03/17 13:27:35;;;;;;;13.70;13.30;;;;;;;;;;4965347;28;20813;-70
2024/03/17 13:30:03;;;;;;;13.70;13.30;;;;;;;;;;4958029;28;20582;-70
2024/03/17 13:32:30;;;;;;;13.90;13.50;;;;;;;;;;4966943;28;20459;-71
2024/03/17 13:34:59;;;;;;;13.90;13.50;;;;;;;;;;4969509;28;20474;-70
2024/03/17 13:37:26;;;;;;;14.13;13.70;;;;;;;;;;4954910;28;20461;-71
2024/03/17 13:39:53;;;;;;;13.47;13.07;;;;;;;;;;4968367;28;20470;-70
2024/03/17 13:42:21;;;;;;;13.90;13.50;;;;;;;;;;4969466;28;20463;-71
2024/03/17 13:44:49;;;;;;;13.50;13.10;;;;;;;;;;4969922;28;20510;-71
2024/03/17 13:47:17;;;;;;;13.87;13.43;;;;;;;;;;4968220;28;20525;-70
2024/03/17 13:49:47;;;;;;;13.30;12.90;;;;;;;;;;4966296;28;20493;-70
2024/03/17 13:52:16;;;;;;;13.60;13.20;;;;;;;;;;4964352;28;20493;-70
2024/03/17 13:54:43;;;;;;;14.57;14.07;;;;;;;;;;4959910;28;20471;-69
2024/03/17 13:57:12;;;;;;;14.40;13.90;;;;;;;;;;4969941;28;20522;-70
2024/03/17 13:59:39;;;;;;;14.10;13.70;;;;;;;;;;4974752;28;20506;-70
2024/03/17 14:02:07;;;;;;;14.23;13.77;;;;;;;;;;4968073;28;20577;-70
2024/03/17 14:04:35;;;;;;;14.80;14.30;;;;;;;;;;4960544;28;21037;-72
2024/03/17 14:07:03;;;;;;;13.90;13.50;;;;;;;;;;4964674;28;20996;-72
2024/03/17 14:09:32;;;;;;;13.70;13.30;;;;;;;;;;4971140;28;20521;-71
2024/03/17 14:11:59;;;;;;;13.50;13.10;;;;;;;;;;4969959;28;20498;-71
2024/03/17 14:14:26;;;;;;;13.80;13.40;;;;;;;;;;4959847;28;20477;-71
2024/03/17 14:16:53;;;;;;;14.40;13.90;;;;;;;;;;4958552;28;20472;-71
2024/03/17 14:19:20;;;;;;;14.40;13.90;;;;;;;;;;4960224;28;20469;-70
2024/03/17 14:21:48;;;;;;;14.43;13.93;;;;;;;;;;4964355;28;20525;-73
2024/03/17 14:24:15;;;;;;;14.77;14.27;;;;;;;;;;4967668;28;20470;-71
2024/03/17 14:26:44;;;;;;;14.40;13.90;;;;;;;;;;4961522;28;20475;-72
2024/03/17 14:29:11;;;;;;;14.20;13.70;;;;;;;;;;4954449;28;20496;-71
2024/03/17 14:31:41;;;;;;;14.40;13.90;;;;;;;;;;4966859;28;20470;-71
2024/03/17 14:34:09;;;;;;;14.60;14.10;;;;;;;;;;4967161;28;20473;-71
2024/03/17 14:36:36;;;;;;;14.53;14.03;;;;;;;;;;4968972;28;20471;-72
2024/03/17 14:39:03;;;;;;;14.90;14.40;;;;;;;;;;4968553;28;20462;-72
2024/03/17 14:41:31;;;;;;;14.70;14.20;;;;;;;;;;4965646;28;20475;-72